createdAt,value
2022-09-16T00:00:49.077Z,14.40
2022-09-16T00:03:17.692Z,14.40
2022-09-16T00:05:46.540Z,14.40
2022-09-16T00:08:14.539Z,14.40
2022-09-16T00:10:41.373Z,14.40
2022-09-16T00:13:08.273Z,14.40
2022-09-16T00:15:35.361Z,14.40
2022-09-16T00:18:02.357Z,14.40
2022-09-16T00:20:29.220Z,14.40
2022-09-16T00:22:55.940Z,14.40
2022-09-16T00:25:22.619Z,14.40
2022-09-16T00:27:49.714Z,14.40
2022-09-16T00:30:16.722Z,14.30
2022-09-16T00:32:44.059Z,14.30
2022-09-16T00:35:10.930Z,14.30
2022-09-16T00:37:37.634Z,14.30
2022-09-16T00:40:04.944Z,14.30
2022-09-16T00:42:36.377Z,14.20
2022-09-16T00:45:13.384Z,14.20
2022-09-16T00:47:59.222Z,14.20
2022-09-16T00:50:47.026Z,14.10
2022-09-16T00:53:18.953Z,14.10
2022-09-16T00:55:46.355Z,14.00
2022-09-16T00:58:18.543Z,14.00
2022-09-16T01:00:45.361Z,13.90
2022-09-16T01:03:12.166Z,13.90
2022-09-16T01:05:39.477Z,13.90
2022-09-16T01:08:06.688Z,13.90
2022-09-16T01:10:33.539Z,13.80
2022-09-16T01:13:06.453Z,13.80
2022-09-16T01:15:58.831Z,13.80
2022-09-16T01:18:39.035Z,13.80
2022-09-16T01:21:36.180Z,13.70
2022-09-16T01:24:24.731Z,13.70
2022-09-16T01:27:00.121Z,13.70
2022-09-16T01:29:35.721Z,13.70
2022-09-16T01:32:26.730Z,13.60
2022-09-16T01:35:02.877Z,13.60
2022-09-16T01:37:34.563Z,13.60
2022-09-16T01:40:16.610Z,13.60
2022-09-16T01:42:58.030Z,13.60
2022-09-16T01:45:33.110Z,13.60
2022-09-16T01:48:19.589Z,13.50
2022-09-16T01:51:01.419Z,13.50
2022-09-16T01:53:31.444Z,13.50
2022-09-16T01:55:59.472Z,13.50
2022-09-16T01:58:53.491Z,13.50
2022-09-16T02:01:33.975Z,13.40
2022-09-16T02:04:10.304Z,13.40
2022-09-16T02:06:40.551Z,13.40
2022-09-16T02:09:15.188Z,13.40
2022-09-16T02:11:44.495Z,13.30
2022-09-16T02:14:21.068Z,13.30
2022-09-16T02:16:56.123Z,13.30
2022-09-16T02:19:30.478Z,13.30
2022-09-16T02:22:01.824Z,13.30
2022-09-16T02:24:32.429Z,13.30
2022-09-16T02:27:03.033Z,13.20
2022-09-16T02:29:39.491Z,13.20
2022-09-16T02:32:09.350Z,13.20
2022-09-16T02:34:41.543Z,13.20
2022-09-16T02:37:29.698Z,13.20
2022-09-16T02:40:02.286Z,13.20
2022-09-16T02:42:30.174Z,13.20
2022-09-16T02:44:58.176Z,13.20
2022-09-16T02:47:59.765Z,13.30
2022-09-16T02:51:22.796Z,13.30
2022-09-16T02:53:57.016Z,13.30
2022-09-16T02:56:30.645Z,13.40
2022-09-16T02:58:57.639Z,13.40
2022-09-16T03:01:26.053Z,13.40
2022-09-16T03:03:56.196Z,13.40
2022-09-16T03:06:27.491Z,13.50
2022-09-16T03:08:58.562Z,13.50
2022-09-16T03:11:39.700Z,13.50
2022-09-16T03:14:50.876Z,13.50
2022-09-16T03:17:48.383Z,13.50
2022-09-16T03:20:33.682Z,13.40
2022-09-16T03:23:21.420Z,13.40
2022-09-16T03:25:52.892Z,13.40
2022-09-16T03:28:25.814Z,13.40
2022-09-16T03:31:13.045Z,13.40
2022-09-16T03:34:12.244Z,13.40
2022-09-16T03:36:49.589Z,13.40
2022-09-16T03:39:16.396Z,13.40
2022-09-16T03:41:43.746Z,13.40
2022-09-16T03:44:10.637Z,13.40
2022-09-16T03:46:37.490Z,13.40
2022-09-16T03:49:04.314Z,13.40
2022-09-16T03:51:34.118Z,13.40
2022-09-16T03:54:00.865Z,13.40
2022-09-16T03:56:27.531Z,13.40
2022-09-16T03:58:54.266Z,13.40
2022-09-16T04:01:21.442Z,13.40
2022-09-16T04:03:48.268Z,13.40
2022-09-16T04:06:15.174Z,13.40
2022-09-16T04:08:44.390Z,13.40
2022-09-16T04:11:11.230Z,13.40
2022-09-16T04:13:37.982Z,13.40
2022-09-16T04:16:05.167Z,13.40
2022-09-16T04:18:33.872Z,13.40
2022-09-16T04:21:03.035Z,13.40
2022-09-16T04:23:31.376Z,13.40
2022-09-16T04:26:10.212Z,13.40
2022-09-16T04:28:37.500Z,13.40
2022-09-16T04:31:07.245Z,13.40
2022-09-16T04:33:35.725Z,13.40
2022-09-16T04:36:07.006Z,13.40
2022-09-16T04:38:33.841Z,13.40
2022-09-16T04:41:06.317Z,13.40
2022-09-16T04:43:33.129Z,13.40
2022-09-16T04:46:00.893Z,13.40
2022-09-16T04:48:30.698Z,13.40
2022-09-16T04:51:04.435Z,13.40
2022-09-16T04:53:31.668Z,13.40
2022-09-16T04:56:19.736Z,13.40
2022-09-16T04:58:51.929Z,13.40
2022-09-16T05:01:21.724Z,13.30
2022-09-16T05:03:53.709Z,13.30
2022-09-16T05:06:27.594Z,13.30
2022-09-16T05:08:55.577Z,13.30
2022-09-16T05:11:24.788Z,13.20
2022-09-16T05:13:52.183Z,13.20
2022-09-16T05:16:21.383Z,13.20
2022-09-16T05:18:50.327Z,13.20
2022-09-16T05:21:19.891Z,13.20
2022-09-16T05:23:48.707Z,13.20
2022-09-16T05:26:24.666Z,13.20
2022-09-16T05:28:52.486Z,13.20
2022-09-16T05:31:28.714Z,13.10
2022-09-16T05:33:59.694Z,13.10
2022-09-16T05:36:28.866Z,13.10
2022-09-16T05:39:20.910Z,13.00
2022-09-16T05:41:43.347Z,13.00
2022-09-16T05:44:12.692Z,13.00
2022-09-16T05:46:45.589Z,13.00
2022-09-16T05:49:20.610Z,13.00
2022-09-16T05:51:50.602Z,12.90
2022-09-16T05:54:18.733Z,12.90
2022-09-16T05:56:46.401Z,12.90
2022-09-16T05:59:14.128Z,13.00
2022-09-16T06:01:41.057Z,12.90
2022-09-16T06:04:12.649Z,12.90
2022-09-16T06:06:46.846Z,12.90
2022-09-16T06:09:19.876Z,12.90
2022-09-16T06:11:49.410Z,12.90
2022-09-16T06:14:17.060Z,12.90
2022-09-16T06:16:44.452Z,12.90
2022-09-16T06:19:14.114Z,13.00
2022-09-16T06:21:44.527Z,13.00
2022-09-16T06:24:13.234Z,13.10
2022-09-16T06:26:41.685Z,13.20
2022-09-16T06:29:09.654Z,13.20
2022-09-16T06:31:38.152Z,13.20
2022-09-16T06:34:06.137Z,13.20
2022-09-16T06:36:42.649Z,13.20
2022-09-16T06:39:15.429Z,13.20
2022-09-16T06:41:42.411Z,13.20
2022-09-16T06:44:10.757Z,13.20
2022-09-16T06:46:41.065Z,13.20
2022-09-16T06:49:08.199Z,13.20
2022-09-16T06:51:38.502Z,13.20
2022-09-16T06:54:07.442Z,13.20
2022-09-16T06:56:40.389Z,13.20
2022-09-16T06:59:09.597Z,13.30
2022-09-16T07:01:39.544Z,13.30
2022-09-16T07:04:11.024Z,13.40
2022-09-16T07:07:05.194Z,13.50
2022-09-16T07:09:27.297Z,13.60
2022-09-16T07:11:54.020Z,13.70
2022-09-16T07:14:20.948Z,13.70
2022-09-16T07:16:48.099Z,13.80
2022-09-16T07:19:14.900Z,13.90
2022-09-16T07:21:41.840Z,14.00
2022-09-16T07:24:11.691Z,14.10
2022-09-16T07:26:40.018Z,14.30
2022-09-16T07:29:10.027Z,14.60
2022-09-16T07:31:38.681Z,14.80
2022-09-16T07:34:08.355Z,14.90
2022-09-16T07:36:43.846Z,14.80
2022-09-16T07:39:12.718Z,14.80
2022-09-16T07:41:42.423Z,14.90
2022-09-16T07:44:12.838Z,15.20
2022-09-16T07:46:40.051Z,15.80
2022-09-16T07:49:08.719Z,16.70
2022-09-16T07:51:35.950Z,17.80
2022-09-16T07:54:10.728Z,18.90
2022-09-16T07:56:40.027Z,19.80
2022-09-16T07:59:14.244Z,20.60
2022-09-16T08:01:44.664Z,21.20
2022-09-16T08:04:12.257Z,21.40
2022-09-16T08:06:39.835Z,21.60
2022-09-16T08:09:15.662Z,21.80
2022-09-16T08:11:53.255Z,22.10
2022-09-16T08:14:20.114Z,22.30
2022-09-16T08:16:52.106Z,22.40
2022-09-16T08:19:22.592Z,22.50
2022-09-16T08:21:49.407Z,22.40
2022-09-16T08:24:16.534Z,22.20
2022-09-16T08:26:43.392Z,21.90
2022-09-16T08:29:10.751Z,21.60
2022-09-16T08:31:40.277Z,21.40
2022-09-16T08:34:07.267Z,21.20
2022-09-16T08:36:37.621Z,21.10
2022-09-16T08:39:04.476Z,20.80
2022-09-16T08:41:55.438Z,20.60
2022-09-16T08:44:38.814Z,20.60
2022-09-16T08:47:32.256Z,20.60
2022-09-16T08:50:03.507Z,20.60
2022-09-16T08:52:37.782Z,20.80
2022-09-16T08:55:17.447Z,20.90
2022-09-16T08:58:07.292Z,20.90
2022-09-16T09:00:34.479Z,20.90
2022-09-16T09:03:10.945Z,20.90
2022-09-16T09:06:39.203Z,21.00
2022-09-16T09:09:33.811Z,21.20
2022-09-16T09:12:17.681Z,21.20
2022-09-16T09:14:47.943Z,21.20
2022-09-16T09:17:37.235Z,20.60
2022-09-16T09:20:30.021Z,19.90
2022-09-16T09:23:23.178Z,19.10
2022-09-16T09:25:59.307Z,18.30
2022-09-16T09:28:31.951Z,17.80
2022-09-16T09:31:17.491Z,17.30
2022-09-16T09:34:21.503Z,17.00
2022-09-16T09:36:59.519Z,16.60
2022-09-16T09:39:49.615Z,16.30
2022-09-16T09:42:25.799Z,16.00
2022-09-16T09:45:02.531Z,15.80
2022-09-16T09:47:39.962Z,15.70
2022-09-16T09:50:15.677Z,15.70
2022-09-16T09:53:07.334Z,15.90
2022-09-16T09:55:35.782Z,16.10
2022-09-16T09:58:24.010Z,16.30
2022-09-16T10:00:53.300Z,16.40
2022-09-16T10:03:20.500Z,16.50
2022-09-16T10:05:48.108Z,16.60
2022-09-16T10:08:51.291Z,16.80
2022-09-16T10:11:21.280Z,17.00
2022-09-16T10:13:51.464Z,17.20
2022-09-16T10:16:21.154Z,17.50
2022-09-16T10:19:19.111Z,17.80
2022-09-16T10:21:54.183Z,17.90
2022-09-16T10:24:54.850Z,17.90
2022-09-16T10:27:34.166Z,18.20
2022-09-16T10:30:17.797Z,18.40
2022-09-16T10:33:07.800Z,18.60
2022-09-16T10:35:39.255Z,18.70
2022-09-16T10:38:19.326Z,18.70
2022-09-16T10:41:01.423Z,18.80
2022-09-16T10:43:31.181Z,19.00
2022-09-16T10:45:59.185Z,18.90
2022-09-16T10:48:31.044Z,18.90
2022-09-16T10:51:00.351Z,19.00
2022-09-16T10:53:57.705Z,19.20
2022-09-16T10:56:29.633Z,19.30
2022-09-16T10:59:09.660Z,19.20
2022-09-16T11:01:55.132Z,19.20
2022-09-16T11:04:40.365Z,19.30
2022-09-16T11:07:31.895Z,19.60
2022-09-16T11:10:05.553Z,19.70
2022-09-16T11:12:41.875Z,19.90
2022-09-16T11:15:37.244Z,20.10
2022-09-16T11:18:39.612Z,20.30
2022-09-16T11:21:34.587Z,20.40
2022-09-16T11:24:22.644Z,20.50
2022-09-16T11:27:02.323Z,20.40
2022-09-16T11:29:40.904Z,20.20
2022-09-16T11:32:49.867Z,19.70
2022-09-16T11:35:47.334Z,19.30
2022-09-16T11:38:42.437Z,18.70
2022-09-16T11:41:38.862Z,18.30
2022-09-16T11:44:30.149Z,18.00
2022-09-16T11:47:26.898Z,17.70
2022-09-16T11:49:59.986Z,17.70
2022-09-16T11:53:05.827Z,17.70
2022-09-16T11:55:55.247Z,17.80
2022-09-16T11:58:47.881Z,18.00
2022-09-16T12:01:55.293Z,18.20
2022-09-16T12:04:57.454Z,18.50
2022-09-16T12:07:42.427Z,18.70
2022-09-16T12:10:26.531Z,19.00
2022-09-16T12:13:01.707Z,19.20
2022-09-16T12:15:38.555Z,19.60
2022-09-16T12:18:24.730Z,19.70
2022-09-16T12:20:57.759Z,19.60
2022-09-16T12:23:28.740Z,19.30
2022-09-16T12:26:05.850Z,19.10
2022-09-16T12:28:39.026Z,19.00
2022-09-16T12:31:40.511Z,18.80
2022-09-16T12:34:18.464Z,18.60
2022-09-16T12:36:52.389Z,18.40
2022-09-16T12:39:19.183Z,18.10
2022-09-16T12:42:32.011Z,17.90
2022-09-16T12:45:38.471Z,17.70
2022-09-16T12:48:23.904Z,17.40
2022-09-16T12:51:12.366Z,17.50
2022-09-16T12:54:07.674Z,17.60
2022-09-16T12:57:01.687Z,17.70
2022-09-16T12:59:58.910Z,17.80
2022-09-16T13:02:36.353Z,17.90
2022-09-16T13:05:18.672Z,18.00
2022-09-16T13:07:50.542Z,18.20
2022-09-16T13:10:57.799Z,18.30
2022-09-16T13:13:35.532Z,18.50
2022-09-16T13:16:05.241Z,18.60
2022-09-16T13:19:04.802Z,18.60
2022-09-16T13:21:47.451Z,18.50
2022-09-16T13:24:32.859Z,18.20
2022-09-16T13:26:59.712Z,18.10
2022-09-16T13:29:46.658Z,18.00
2022-09-16T13:32:26.353Z,18.00
2022-09-16T13:35:24.942Z,18.00
2022-09-16T13:37:57.004Z,18.10
2022-09-16T13:40:29.822Z,18.20
2022-09-16T13:43:11.555Z,18.20
2022-09-16T13:45:42.141Z,18.10
2022-09-16T13:48:19.212Z,18.00
2022-09-16T13:50:53.483Z,17.90
2022-09-16T13:53:32.426Z,17.90
2022-09-16T13:56:26.635Z,18.10
2022-09-16T13:59:29.423Z,18.30
2022-09-16T14:02:05.253Z,18.50
2022-09-16T14:05:00.149Z,18.60
2022-09-16T14:07:32.768Z,18.70
2022-09-16T14:10:14.291Z,18.80
2022-09-16T14:13:03.689Z,18.80
2022-09-16T14:15:36.580Z,18.90
2022-09-16T14:18:04.537Z,18.90
2022-09-16T14:20:37.025Z,18.90
2022-09-16T14:23:13.612Z,19.00
2022-09-16T14:25:52.222Z,19.10
2022-09-16T14:28:23.440Z,19.10
2022-09-16T14:30:59.795Z,19.10
2022-09-16T14:33:29.863Z,19.20
2022-09-16T14:35:57.518Z,19.30
2022-09-16T14:38:52.406Z,19.30
2022-09-16T14:41:56.984Z,19.20
2022-09-16T14:45:02.062Z,19.10
2022-09-16T14:47:51.324Z,19.10
2022-09-16T14:50:39.238Z,19.10
2022-09-16T14:53:24.252Z,19.30
2022-09-16T14:58:22.233Z,19.30
2022-09-16T15:01:09.037Z,19.20
2022-09-16T15:03:52.956Z,19.20
2022-09-16T15:06:28.825Z,19.20
2022-09-16T15:09:06.830Z,19.40
2022-09-16T15:11:48.211Z,19.40
2022-09-16T15:14:16.590Z,19.40
2022-09-16T15:16:52.141Z,19.40
2022-09-16T15:19:40.979Z,19.40
2022-09-16T15:22:13.444Z,19.30
2022-09-16T15:24:41.648Z,19.30
2022-09-16T15:27:09.381Z,19.30
2022-09-16T15:29:53.489Z,19.30
2022-09-16T15:32:24.149Z,19.30
2022-09-16T15:35:12.067Z,19.20
2022-09-16T15:37:38.845Z,19.00
2022-09-16T15:40:26.237Z,18.90
2022-09-16T15:43:27.918Z,18.70
2022-09-16T15:46:25.878Z,18.50
2022-09-16T15:49:01.938Z,18.40
2022-09-16T15:51:33.318Z,18.20
2022-09-16T15:54:16.523Z,18.00
2022-09-16T15:57:04.454Z,17.80
2022-09-16T16:00:11.975Z,17.50
2022-09-16T16:03:00.650Z,17.30
2022-09-16T16:05:30.402Z,17.10
2022-09-16T16:08:07.460Z,16.90
2022-09-16T16:10:36.401Z,16.90
2022-09-16T16:13:04.985Z,16.80
2022-09-16T16:15:36.164Z,16.70
2022-09-16T16:18:06.410Z,16.60
2022-09-16T16:20:35.992Z,16.40
2022-09-16T16:23:03.008Z,16.30
2022-09-16T16:25:29.769Z,16.20
2022-09-16T16:27:56.463Z,16.10
2022-09-16T16:30:23.743Z,16.00
2022-09-16T16:32:50.633Z,15.90
2022-09-16T16:35:17.316Z,15.90
2022-09-16T16:37:46.833Z,15.80
2022-09-16T16:40:15.355Z,15.70
2022-09-16T16:42:45.296Z,15.60
2022-09-16T16:45:13.707Z,15.50
2022-09-16T16:47:41.400Z,15.40
2022-09-16T16:50:08.605Z,15.30
2022-09-16T16:52:35.370Z,15.20
2022-09-16T16:55:04.173Z,15.10
2022-09-16T16:57:30.974Z,15.10
2022-09-16T16:59:57.634Z,15.00
2022-09-16T17:02:24.767Z,15.00
2022-09-16T17:04:51.776Z,14.90
2022-09-16T17:07:27.245Z,14.80
2022-09-16T17:09:57.529Z,14.80
2022-09-16T17:12:24.648Z,14.70
2022-09-16T17:14:51.415Z,14.70
2022-09-16T17:17:18.189Z,14.70
2022-09-16T17:19:45.081Z,14.70
2022-09-16T17:22:11.801Z,14.60
2022-09-16T17:24:38.558Z,14.60
2022-09-16T17:27:05.502Z,14.50
2022-09-16T17:29:32.429Z,14.50
2022-09-16T17:32:02.572Z,14.40
2022-09-16T17:34:30.145Z,14.40
2022-09-16T17:36:58.397Z,14.30
2022-09-16T17:39:25.986Z,14.30
2022-09-16T17:41:54.582Z,14.20
2022-09-16T17:44:21.501Z,14.20
2022-09-16T17:46:49.644Z,14.20
2022-09-16T17:49:22.148Z,14.10
2022-09-16T17:51:50.171Z,14.10
2022-09-16T17:54:17.424Z,14.10
2022-09-16T17:56:44.504Z,14.10
2022-09-16T17:59:12.574Z,14.00
2022-09-16T18:01:39.687Z,14.00
2022-09-16T18:04:07.050Z,14.00
2022-09-16T18:06:44.905Z,13.90
2022-09-16T18:09:13.348Z,13.90
2022-09-16T18:11:40.513Z,13.90
2022-09-16T18:14:10.130Z,13.90
2022-09-16T18:16:37.082Z,13.80
2022-09-16T18:19:07.387Z,13.80
2022-09-16T18:21:34.720Z,13.80
2022-09-16T18:24:02.925Z,13.70
2022-09-16T18:26:31.030Z,13.70
2022-09-16T18:29:09.676Z,13.70
2022-09-16T18:31:41.235Z,13.70
2022-09-16T18:34:08.230Z,13.60
2022-09-16T18:36:36.963Z,13.60
2022-09-16T18:39:05.228Z,13.60
2022-09-16T18:41:36.404Z,13.60
2022-09-16T18:44:07.626Z,13.60
2022-09-16T18:46:36.975Z,13.50
2022-09-16T18:49:05.024Z,13.50
2022-09-16T18:51:37.785Z,13.50
2022-09-16T18:54:14.448Z,13.40
2022-09-16T18:56:41.842Z,13.40
2022-09-16T18:59:21.526Z,13.40
2022-09-16T19:01:48.925Z,13.40
2022-09-16T19:04:18.102Z,13.30
2022-09-16T19:06:49.000Z,13.30
2022-09-16T19:09:19.107Z,13.20
2022-09-16T19:11:46.424Z,13.20
2022-09-16T19:14:16.136Z,13.20
2022-09-16T19:16:44.908Z,13.10
2022-09-16T19:19:14.067Z,13.10
2022-09-16T19:21:42.234Z,13.10
2022-09-16T19:24:22.949Z,13.00
2022-09-16T19:26:51.801Z,13.00
2022-09-16T19:29:20.176Z,13.00
2022-09-16T19:31:48.654Z,13.00
2022-09-16T19:34:16.469Z,13.00
2022-09-16T19:36:44.024Z,13.00
2022-09-16T19:39:14.637Z,12.90
2022-09-16T19:41:48.162Z,12.90
2022-09-16T19:44:17.259Z,12.90
2022-09-16T19:46:49.396Z,12.90
2022-09-16T19:49:21.687Z,12.80
2022-09-16T19:51:49.997Z,12.80
2022-09-16T19:54:20.442Z,12.80
2022-09-16T19:56:50.593Z,12.90
2022-09-16T19:59:20.955Z,12.90
2022-09-16T20:01:51.416Z,12.90
2022-09-16T20:04:20.492Z,12.90
2022-09-16T20:06:47.394Z,12.90
2022-09-16T20:09:14.207Z,12.90
2022-09-16T20:11:44.094Z,12.90
2022-09-16T20:14:16.917Z,12.90
2022-09-16T20:16:44.173Z,12.90
2022-09-16T20:19:13.971Z,12.90
2022-09-16T20:21:48.546Z,12.80
2022-09-16T20:24:23.609Z,12.80
2022-09-16T20:26:52.422Z,12.80
2022-09-16T20:29:20.493Z,12.80
2022-09-16T20:31:49.420Z,12.80
2022-09-16T20:34:17.218Z,12.70
2022-09-16T20:36:46.916Z,12.80
2022-09-16T20:39:14.765Z,12.70
2022-09-16T20:41:42.506Z,12.80
2022-09-16T20:44:15.994Z,12.80
2022-09-16T20:46:42.779Z,12.80
2022-09-16T20:49:15.198Z,12.80
2022-09-16T20:51:44.199Z,12.80
2022-09-16T20:54:13.160Z,12.80
2022-09-16T20:56:41.968Z,12.80
2022-09-16T20:59:11.281Z,12.80
2022-09-16T21:01:39.505Z,12.80
2022-09-16T21:04:11.402Z,12.80
2022-09-16T21:06:38.060Z,12.80
2022-09-16T21:09:07.519Z,12.80
2022-09-16T21:11:35.718Z,12.80
2022-09-16T21:14:06.546Z,12.80
2022-09-16T21:16:36.113Z,12.80
2022-09-16T21:19:05.871Z,12.70
2022-09-16T21:21:32.594Z,12.70
2022-09-16T21:24:01.502Z,12.70
2022-09-16T21:26:33.237Z,12.70
2022-09-16T21:29:05.975Z,12.70
2022-09-16T21:31:34.682Z,12.70
2022-09-16T21:34:05.024Z,12.70
2022-09-16T21:36:32.236Z,12.70
2022-09-16T21:39:02.320Z,12.70
2022-09-16T21:41:29.141Z,12.70
2022-09-16T21:43:57.116Z,12.70
2022-09-16T21:46:27.023Z,12.70
2022-09-16T21:48:58.204Z,12.60
2022-09-16T21:51:25.128Z,12.60
2022-09-16T21:53:52.319Z,12.60
2022-09-16T21:56:21.100Z,12.60
2022-09-16T21:58:49.934Z,12.60
2022-09-16T22:01:25.426Z,12.60
2022-09-16T22:04:06.873Z,12.60
2022-09-16T22:06:34.531Z,12.60
2022-09-16T22:09:03.416Z,12.60
2022-09-16T22:11:32.632Z,12.60
2022-09-16T22:14:00.842Z,12.60
2022-09-16T22:16:30.095Z,12.60
2022-09-16T22:19:00.621Z,12.60
2022-09-16T22:21:30.034Z,12.60
2022-09-16T22:23:59.016Z,12.60
2022-09-16T22:26:27.028Z,12.60
2022-09-16T22:28:57.573Z,12.60
2022-09-16T22:31:30.374Z,12.60
2022-09-16T22:34:00.430Z,12.60
2022-09-16T22:36:34.325Z,12.60
2022-09-16T22:39:04.963Z,12.60
2022-09-16T22:41:33.506Z,12.60
2022-09-16T22:44:00.700Z,12.60
2022-09-16T22:46:31.214Z,12.60
2022-09-16T22:48:59.293Z,12.60
2022-09-16T22:51:27.253Z,12.60
2022-09-16T22:53:54.619Z,12.60
2022-09-16T22:56:24.939Z,12.60
2022-09-16T22:58:56.407Z,12.60
2022-09-16T23:01:25.933Z,12.60
2022-09-16T23:03:58.981Z,12.60
2022-09-16T23:06:27.590Z,12.60
2022-09-16T23:08:54.784Z,12.60
2022-09-16T23:11:24.928Z,12.60
2022-09-16T23:13:54.149Z,12.60
2022-09-16T23:16:23.808Z,12.60
2022-09-16T23:18:50.725Z,12.60
2022-09-16T23:21:19.680Z,12.60
2022-09-16T23:23:51.945Z,12.60
2022-09-16T23:26:21.543Z,12.60
2022-09-16T23:28:52.600Z,12.60
2022-09-16T23:31:23.479Z,12.50
2022-09-16T23:33:50.400Z,12.50
2022-09-16T23:36:18.566Z,12.50
2022-09-16T23:38:49.408Z,12.50
2022-09-16T23:41:19.896Z,12.50
2022-09-16T23:43:48.315Z,12.50
2022-09-16T23:46:20.589Z,12.50
2022-09-16T23:48:47.569Z,12.50
2022-09-16T23:51:14.736Z,12.50
2022-09-16T23:53:45.125Z,12.60
2022-09-16T23:56:13.988Z,12.60
2022-09-16T23:58:42.140Z,12.60
